Time;durP1;ratioP1;P1;durP2;ratioP2;P2;SDS_P1;SDS_P2;PMS_P1;PMS_P2;Temp;Humidity;BMP_temperature;BMP_pressure;BME280_temperature;BME280_humidity;BME280_pressure;Samples;Min_cycle;Max_cycle;Signal;HPM_P1;HPM_P2
2023/09/12 00:00:54;;;;;;;43.03;35.78;;;19.80;99.90;;;;;;4976025;28;94513;-32
2023/09/12 00:03:21;;;;;;;41.28;33.92;;;19.80;99.90;;;;;;4977077;28;94759;-36
2023/09/12 00:05:54;;;;;;;38.27;31.97;;;19.80;99.90;;;;;;4977698;28;92528;-33
2023/09/12 00:08:20;;;;;;;41.10;33.45;;;19.80;99.90;;;;;;4959374;28;93424;-36
2023/09/12 00:10:46;;;;;;;43.13;33.65;;;19.80;99.90;;;;;;4976672;28;96234;-35
2023/09/12 00:13:12;;;;;;;38.75;32.45;;;19.80;99.90;;;;;;4976978;28;94581;-37
2023/09/12 00:15:37;;;;;;;36.92;32.75;;;19.70;99.90;;;;;;4976913;28;93538;-33
2023/09/12 00:18:04;;;;;;;42.42;34.65;;;19.70;99.90;;;;;;4976872;28;93444;-35
2023/09/12 00:20:29;;;;;;;41.65;33.60;;;19.70;99.90;;;;;;4975820;28;95674;-38
2023/09/12 00:22:56;;;;;;;40.78;33.38;;;19.70;99.90;;;;;;4959210;28;97171;-33
2023/09/12 00:25:21;;;;;;;43.08;34.88;;;19.70;99.90;;;;;;4975783;28;93312;-34
2023/09/12 00:27:47;;;;;;;39.65;34.22;;;19.70;99.90;;;;;;4977507;28;93253;-36
2023/09/12 00:30:14;;;;;;;39.92;31.70;;;19.60;99.90;;;;;;4975510;28;94904;-34
2023/09/12 00:32:40;;;;;;;50.65;36.25;;;19.70;99.90;;;;;;4976766;28;94487;-39
2023/09/12 00:35:06;;;;;;;46.15;37.13;;;19.60;99.90;;;;;;4977216;28;94902;-33
2023/09/12 00:37:31;;;;;;;51.00;37.67;;;19.60;99.90;;;;;;4976588;28;92419;-38
2023/09/12 00:39:57;;;;;;;38.67;32.33;;;19.60;99.90;;;;;;4976041;28;95317;-35
2023/09/12 00:42:26;;;;;;;40.33;33.80;;;19.60;99.90;;;;;;4976373;28;95742;-36
2023/09/12 00:44:52;;;;;;;48.08;37.95;;;19.50;99.90;;;;;;4976316;28;95942;-39
2023/09/12 00:47:20;;;;;;;43.22;35.22;;;19.50;99.90;;;;;;4974956;28;94530;-39
2023/09/12 00:49:47;;;;;;;43.60;33.17;;;19.60;99.90;;;;;;4976643;28;94360;-35
2023/09/12 00:52:14;;;;;;;44.00;36.63;;;19.50;99.90;;;;;;4976211;28;94749;-35
2023/09/12 00:54:40;;;;;;;41.45;35.35;;;19.50;99.90;;;;;;4977595;28;92583;-35
2023/09/12 00:57:06;;;;;;;48.95;36.38;;;19.50;99.90;;;;;;4977126;28;93643;-38
2023/09/12 00:59:31;;;;;;;51.08;37.30;;;19.50;99.90;;;;;;4958816;28;96068;-37
2023/09/12 01:01:58;;;;;;;46.50;34.92;;;19.50;99.90;;;;;;4976295;28;94440;-35
2023/09/12 01:04:24;;;;;;;47.97;37.13;;;19.50;99.90;;;;;;4976933;28;92724;-38
2023/09/12 01:06:50;;;;;;;49.58;37.85;;;19.50;99.90;;;;;;4970592;28;92283;-34
2023/09/12 01:09:15;;;;;;;50.90;37.70;;;19.40;99.90;;;;;;4968654;28;96787;-36
2023/09/12 01:11:41;;;;;;;45.63;37.55;;;19.40;99.90;;;;;;4975426;28;95631;-35
2023/09/12 01:14:07;;;;;;;46.65;36.92;;;19.40;99.90;;;;;;4975778;28;94827;-38
2023/09/12 01:16:32;;;;;;;46.28;37.60;;;19.40;99.90;;;;;;4976516;28;94817;-33
2023/09/12 01:18:58;;;;;;;51.92;38.65;;;19.40;99.90;;;;;;4963535;28;94176;-35
2023/09/12 01:21:52;;;;;;;45.70;36.85;;;19.30;99.90;;;;;;4975123;28;94695;-36
2023/09/12 01:24:49;;;;;;;37.70;31.60;;;19.40;99.90;;;;;;4975619;28;94749;-34
2023/09/12 01:27:18;;;;;;;;;;;19.40;99.90;;;;;;4976195;28;93862;-34
2023/09/12 01:29:45;;;;;;;42.78;36.00;;;19.40;99.90;;;;;;4977527;28;94332;-38
2023/09/12 01:32:14;;;;;;;44.17;35.58;;;19.40;99.90;;;;;;4974931;28;94850;-35
2023/09/12 01:34:39;;;;;;;43.28;34.53;;;19.40;99.90;;;;;;4965295;28;94101;-36
2023/09/12 01:37:05;;;;;;;47.28;35.72;;;19.40;99.90;;;;;;4975736;28;94494;-34
2023/09/12 01:39:31;;;;;;;40.45;35.40;;;19.40;99.90;;;;;;4976029;28;94713;-34
2023/09/12 01:41:59;;;;;;;40.05;33.75;;;19.40;99.90;;;;;;4976167;28;94322;-33
2023/09/12 01:44:26;;;;;;;;;;;19.30;99.90;;;;;;4976769;28;94215;-36
2023/09/12 01:46:54;;;;;;;40.13;34.28;;;19.20;99.90;;;;;;4977442;28;93218;-37
2023/09/12 01:49:21;;;;;;;;;;;19.20;99.90;;;;;;4975913;28;95489;-36
2023/09/12 01:51:47;;;;;;;41.25;33.88;;;19.20;99.90;;;;;;4977583;28;94038;-35
2023/09/12 01:54:14;;;;;;;48.90;37.72;;;19.20;99.90;;;;;;4976216;28;93468;-35
2023/09/12 01:56:40;;;;;;;40.55;33.75;;;19.20;99.90;;;;;;4974582;28;93909;-39
2023/09/12 01:59:06;;;;;;;43.05;34.95;;;19.10;99.90;;;;;;4975342;28;95743;-38
2023/09/12 02:01:31;;;;;;;41.67;34.28;;;19.00;99.90;;;;;;4975565;28;95542;-38
2023/09/12 02:03:58;;;;;;;49.03;37.90;;;19.00;99.90;;;;;;4974888;28;92691;-34
2023/09/12 02:06:23;;;;;;;47.67;37.03;;;19.00;99.90;;;;;;4975390;28;94177;-36
2023/09/12 02:08:49;;;;;;;45.95;35.05;;;18.90;99.90;;;;;;4975236;28;94435;-38
2023/09/12 02:11:15;;;;;;;53.53;39.65;;;18.90;99.90;;;;;;4975120;28;94540;-35
2023/09/12 02:13:40;;;;;;;43.85;34.13;;;18.90;99.90;;;;;;4975876;28;94071;-37
2023/09/12 02:16:06;;;;;;;45.63;34.50;;;19.00;99.90;;;;;;4975955;28;93823;-34
2023/09/12 02:18:31;;;;;;;42.58;35.13;;;19.00;99.90;;;;;;4973487;28;94763;-34
2023/09/12 02:21:00;;;;;;;42.63;33.97;;;19.00;99.90;;;;;;4973646;28;94565;-39
2023/09/12 02:23:26;;;;;;;46.47;37.83;;;18.90;99.90;;;;;;4976560;28;94179;-35
2023/09/12 02:25:51;;;;;;;49.17;37.38;;;18.90;99.90;;;;;;4978563;28;92552;-35
2023/09/12 02:28:17;;;;;;;52.70;40.08;;;18.90;99.90;;;;;;4979038;28;94954;-36
2023/09/12 02:30:42;;;;;;;48.53;37.10;;;18.90;99.90;;;;;;4978432;28;94959;-34
2023/09/12 02:33:08;;;;;;;50.70;38.70;;;18.90;99.90;;;;;;4978652;28;94550;-39
2023/09/12 02:35:34;;;;;;;50.85;37.90;;;18.90;99.90;;;;;;4977142;28;92692;-37
2023/09/12 02:37:59;;;;;;;50.28;39.03;;;19.00;99.90;;;;;;4977066;28;94678;-37
2023/09/12 02:40:25;;;;;;;43.30;35.88;;;18.90;99.90;;;;;;4975006;28;93877;-36
2023/09/12 02:42:52;;;;;;;52.45;39.67;;;18.90;99.90;;;;;;4970483;28;92283;-35
2023/09/12 02:45:17;;;;;;;46.63;38.55;;;18.90;99.90;;;;;;4965077;28;92780;-35
2023/09/12 02:47:43;;;;;;;52.80;41.97;;;18.80;99.90;;;;;;4978404;28;94608;-36
2023/09/12 02:50:09;;;;;;;49.97;38.38;;;18.80;99.90;;;;;;4977631;28;95602;-37
2023/09/12 02:52:35;;;;;;;45.35;36.67;;;18.80;99.90;;;;;;4979287;28;93502;-36
2023/09/12 02:55:00;;;;;;;45.83;36.58;;;18.80;99.90;;;;;;4977837;28;94344;-35
2023/09/12 02:57:26;;;;;;;44.58;36.55;;;18.80;99.90;;;;;;4978412;28;94668;-42
2023/09/12 02:59:52;;;;;;;47.08;37.42;;;18.80;99.90;;;;;;4978775;28;94213;-39
2023/09/12 03:02:17;;;;;;;45.22;38.45;;;18.80;99.90;;;;;;4979017;28;94148;-34
2023/09/12 03:04:43;;;;;;;43.65;34.47;;;18.80;99.90;;;;;;4978663;28;92443;-33
2023/09/12 03:07:08;;;;;;;46.55;36.67;;;18.80;99.90;;;;;;4978127;28;95095;-33
2023/09/12 03:09:34;;;;;;;49.58;38.50;;;18.70;99.90;;;;;;4978037;28;93389;-38
2023/09/12 03:12:04;;;;;;;41.60;35.88;;;18.70;99.90;;;;;;4978366;28;95823;-36
2023/09/12 03:14:29;;;;;;;44.83;36.72;;;18.70;99.90;;;;;;4977979;28;93882;-33
2023/09/12 03:16:55;;;;;;;48.15;38.83;;;18.70;99.90;;;;;;4977621;28;94800;-40
2023/09/12 03:19:22;;;;;;;50.05;39.65;;;18.70;99.90;;;;;;4978194;28;94077;-39
2023/09/12 03:21:47;;;;;;;44.53;35.72;;;18.70;99.90;;;;;;4978132;28;93222;-36
2023/09/12 03:24:13;;;;;;;44.30;36.90;;;18.70;99.90;;;;;;4978318;28;94099;-33
2023/09/12 03:26:38;;;;;;;44.28;36.85;;;18.70;99.90;;;;;;4977538;28;94701;-33
2023/09/12 03:29:05;;;;;;;51.85;40.28;;;18.70;99.90;;;;;;4976683;28;94633;-39
2023/09/12 03:31:31;;;;;;;53.13;41.30;;;18.80;99.90;;;;;;4978516;28;94449;-34
2023/09/12 03:33:56;;;;;;;44.42;36.33;;;18.70;99.90;;;;;;4975256;28;92124;-36
2023/09/12 03:36:22;;;;;;;48.80;39.00;;;18.70;99.90;;;;;;4977818;28;96189;-33
2023/09/12 03:38:48;;;;;;;46.88;38.30;;;18.60;99.90;;;;;;4977091;28;95618;-33
2023/09/12 03:41:13;;;;;;;43.25;35.05;;;18.70;99.90;;;;;;4978087;28;92633;-35
2023/09/12 03:43:39;;;;;;;53.85;37.97;;;18.70;99.90;;;;;;4977350;28;94829;-33
2023/09/12 03:46:05;;;;;;;41.80;35.33;;;18.60;99.90;;;;;;4977159;28;95567;-34
2023/09/12 03:48:31;;;;;;;44.38;35.70;;;18.60;99.90;;;;;;4977451;28;94042;-34
2023/09/12 03:50:57;;;;;;;47.20;37.05;;;18.60;99.90;;;;;;4960515;28;93049;-35
2023/09/12 03:53:23;;;;;;;36.53;32.47;;;18.50;99.90;;;;;;4977822;28;93556;-38
2023/09/12 03:55:48;;;;;;;34.70;30.98;;;18.40;99.90;;;;;;4977665;28;94658;-35
2023/09/12 03:58:14;;;;;;;34.83;30.98;;;18.40;99.90;;;;;;4975860;28;95367;-35
2023/09/12 04:00:40;;;;;;;36.40;32.38;;;18.40;99.90;;;;;;4976716;28;93034;-35
2023/09/12 04:03:05;;;;;;;36.08;32.35;;;18.50;99.90;;;;;;4977192;28;94261;-33
2023/09/12 04:05:31;;;;;;;34.42;30.88;;;18.50;99.90;;;;;;4977342;28;94625;-39
2023/09/12 04:07:57;;;;;;;40.03;33.33;;;18.50;99.90;;;;;;4975040;28;94331;-36
2023/09/12 04:10:23;;;;;;;39.28;31.63;;;18.50;99.90;;;;;;4976066;28;94979;-39
2023/09/12 04:12:48;;;;;;;35.30;31.42;;;18.50;99.90;;;;;;4976338;28;92628;-38
2023/09/12 04:15:14;;;;;;;35.85;29.13;;;18.40;99.90;;;;;;4976475;28;94608;-34
2023/09/12 04:17:39;;;;;;;34.38;30.63;;;18.50;99.90;;;;;;4975302;28;94471;-36
2023/09/12 04:20:06;;;;;;;34.78;30.88;;;18.50;99.90;;;;;;4976971;28;93326;-35
2023/09/12 04:22:32;;;;;;;38.60;32.45;;;18.50;99.90;;;;;;4976836;28;94697;-37
2023/09/12 04:24:58;;;;;;;36.90;31.52;;;18.50;99.90;;;;;;4976756;28;95522;-36
2023/09/12 04:27:23;;;;;;;34.92;31.27;;;18.50;99.90;;;;;;4976600;28;95655;-36
2023/09/12 04:29:49;;;;;;;34.33;30.75;;;18.40;99.90;;;;;;4975287;28;93707;-34
2023/09/12 04:32:16;;;;;;;38.67;33.08;;;18.40;99.90;;;;;;4958720;28;93325;-35
2023/09/12 04:34:43;;;;;;;31.43;27.93;;;18.50;99.90;;;;;;4976633;28;95728;-33
2023/09/12 04:37:08;;;;;;;35.20;29.90;;;18.50;99.90;;;;;;4972627;28;94312;-35
2023/09/12 04:39:34;;;;;;;36.67;32.30;;;18.50;99.90;;;;;;4976939;28;93530;-34
2023/09/12 04:42:00;;;;;;;37.25;32.28;;;18.40;99.90;;;;;;4973169;28;92639;-33
2023/09/12 04:44:25;;;;;;;37.17;31.33;;;18.40;99.90;;;;;;4967477;28;97000;-35
2023/09/12 04:46:51;;;;;;;42.83;33.35;;;18.40;99.90;;;;;;4976138;28;94526;-35
2023/09/12 04:49:16;;;;;;;35.03;30.13;;;18.30;99.90;;;;;;4967067;28;94419;-38
2023/09/12 04:51:42;;;;;;;42.50;33.03;;;18.30;99.90;;;;;;4973415;28;92185;-37
2023/09/12 04:54:08;;;;;;;41.92;34.47;;;18.30;99.90;;;;;;4948915;28;94959;-36
2023/09/12 04:56:34;;;;;;;43.42;33.97;;;18.30;99.90;;;;;;4973489;28;94369;-34
2023/09/12 04:58:59;;;;;;;38.38;32.67;;;18.40;99.90;;;;;;4976769;28;92604;-34
2023/09/12 05:01:25;;;;;;;41.28;33.83;;;18.40;99.90;;;;;;4963705;28;94317;-35
2023/09/12 05:03:51;;;;;;;40.67;32.00;;;18.30;99.90;;;;;;4976177;28;94701;-32
2023/09/12 05:06:17;;;;;;;46.38;36.65;;;18.40;99.90;;;;;;4976438;28;95870;-36
2023/09/12 05:08:42;;;;;;;54.38;39.13;;;18.40;99.90;;;;;;4976045;28;94249;-37
2023/09/12 05:11:09;;;;;;;49.47;36.40;;;18.40;99.90;;;;;;4975831;28;92682;-34
2023/09/12 05:13:34;;;;;;;48.33;35.90;;;18.40;99.90;;;;;;4976499;28;95902;-32
2023/09/12 05:16:00;;;;;;;40.20;31.17;;;18.30;99.90;;;;;;4975350;28;95545;-37
2023/09/12 05:18:26;;;;;;;37.92;32.03;;;18.30;99.90;;;;;;4968348;28;93024;-34
2023/09/12 05:20:51;;;;;;;38.38;33.50;;;18.30;99.90;;;;;;4973117;28;95203;-34
2023/09/12 05:23:17;;;;;;;39.97;32.65;;;18.30;99.90;;;;;;4976298;28;94695;-38
2023/09/12 05:25:42;;;;;;;42.75;34.90;;;18.40;99.90;;;;;;4960918;28;94591;-36
2023/09/12 05:28:08;;;;;;;44.38;34.78;;;18.30;99.90;;;;;;4966442;28;93898;-39
2023/09/12 05:30:34;;;;;;;57.92;34.83;;;18.30;99.90;;;;;;5030546;22;92683;-33
2023/09/12 05:33:00;;;;;;;39.50;32.95;;;18.20;99.90;;;;;;4983280;28;94737;-33
2023/09/12 05:35:26;;;;;;;44.55;35.78;;;18.30;99.90;;;;;;4982340;28;94615;-33
2023/09/12 05:37:51;;;;;;;37.13;31.13;;;18.30;99.90;;;;;;4991878;28;94350;-33
2023/09/12 05:40:18;;;;;;;39.30;32.47;;;18.40;99.90;;;;;;4976072;28;94745;-35
2023/09/12 05:42:44;;;;;;;42.65;33.95;;;18.40;99.90;;;;;;4972059;28;95523;-38
2023/09/12 05:45:10;;;;;;;43.33;33.88;;;18.40;99.90;;;;;;4973052;28;94697;-38
2023/09/12 05:47:35;;;;;;;40.55;32.75;;;18.30;99.90;;;;;;4973491;28;93385;-35
2023/09/12 05:50:04;;;;;;;46.45;36.75;;;18.40;99.90;;;;;;4973246;28;94639;-33
2023/09/12 05:52:30;;;;;;;43.22;31.90;;;18.40;99.90;;;;;;4972901;28;94747;-38
2023/09/12 05:54:56;;;;;;;44.28;36.35;;;18.40;99.90;;;;;;4972365;28;94349;-36
2023/09/12 05:57:21;;;;;;;41.50;31.88;;;18.30;99.90;;;;;;4972504;28;92953;-37
2023/09/12 05:59:47;;;;;;;39.75;32.70;;;18.20;99.90;;;;;;4972990;28;92664;-34
2023/09/12 06:02:13;;;;;;;41.25;33.22;;;18.20;99.90;;;;;;4972128;28;96466;-34
2023/09/12 06:04:39;;;;;;;41.63;32.75;;;18.30;99.90;;;;;;4973453;28;95452;-34
2023/09/12 06:07:04;;;;;;;40.92;33.50;;;18.30;99.90;;;;;;4972857;28;92586;-39
2023/09/12 06:09:30;;;;;;;50.90;35.15;;;18.20;99.90;;;;;;4972586;28;94650;-34
2023/09/12 06:11:56;;;;;;;39.35;31.27;;;18.30;99.90;;;;;;4971658;28;95524;-37
2023/09/12 06:14:22;;;;;;;51.55;38.90;;;18.30;99.90;;;;;;4973323;28;94932;-35
2023/09/12 06:16:48;;;;;;;44.72;34.22;;;18.30;99.90;;;;;;4972351;28;93251;-38
2023/09/12 06:19:19;;;;;;;51.72;33.97;;;18.30;99.90;;;;;;4973296;28;92005;-35
2023/09/12 06:21:45;;;;;;;43.25;31.92;;;18.30;99.90;;;;;;4966427;28;94637;-38
2023/09/12 06:24:20;;;;;;;42.70;35.47;;;18.30;99.90;;;;;;4977886;28;94381;-37
2023/09/12 06:26:46;;;;;;;37.95;30.75;;;18.30;99.90;;;;;;4973007;28;94093;-35
2023/09/12 06:29:13;;;;;;;39.30;32.88;;;18.30;99.90;;;;;;4972018;28;93112;-37
2023/09/12 06:31:41;;;;;;;44.58;32.47;;;18.30;99.90;;;;;;4972180;28;94540;-34
2023/09/12 06:34:07;;;;;;;40.97;33.43;;;18.30;99.90;;;;;;4971900;28;94931;-39
2023/09/12 06:36:33;;;;;;;41.30;30.70;;;18.30;99.90;;;;;;4973306;28;93171;-34
2023/09/12 06:38:59;;;;;;;42.33;32.70;;;18.30;99.90;;;;;;4986153;28;94518;-35
2023/09/12 06:41:26;;;;;;;37.47;30.45;;;18.30;99.90;;;;;;4984745;28;94756;-35
2023/09/12 06:43:52;;;;;;;43.25;33.70;;;18.30;99.90;;;;;;4972577;28;96321;-36
2023/09/12 06:46:18;;;;;;;41.75;34.00;;;18.30;99.90;;;;;;4972677;28;93140;-33
2023/09/12 06:48:46;;;;;;;46.00;33.85;;;18.30;99.90;;;;;;4972379;28;94373;-34
2023/09/12 06:51:12;;;;;;;43.60;35.67;;;18.30;99.90;;;;;;4971935;28;95804;-39
2023/09/12 06:53:38;;;;;;;46.10;34.78;;;18.30;99.90;;;;;;4972110;28;95168;-39
2023/09/12 06:56:05;;;;;;;47.50;35.75;;;18.30;99.90;;;;;;4972506;28;92843;-39
2023/09/12 06:58:30;;;;;;;44.83;33.60;;;18.40;99.90;;;;;;4941128;28;92929;-37
2023/09/12 07:01:01;;;;;;;42.47;33.72;;;18.40;99.90;;;;;;4967576;28;95800;-36
2023/09/12 07:03:26;;;;;;;48.90;34.40;;;18.40;99.90;;;;;;4973272;28;95017;-36
2023/09/12 07:05:52;;;;;;;49.88;36.65;;;18.50;99.90;;;;;;4972972;28;92287;-39
2023/09/12 07:08:17;;;;;;;47.70;33.90;;;18.50;99.90;;;;;;4971930;28;93862;-34
2023/09/12 07:10:46;;;;;;;50.83;39.40;;;18.60;99.90;;;;;;4975057;28;94689;-35
2023/09/12 07:13:12;;;;;;;52.25;38.03;;;18.60;99.90;;;;;;4974833;28;94223;-35
2023/09/12 07:15:39;;;;;;;48.22;35.67;;;18.60;99.90;;;;;;4976390;28;95114;-36
2023/09/12 07:18:06;;;;;;;51.42;37.40;;;18.60;99.90;;;;;;4975715;28;94516;-35
2023/09/12 07:20:32;;;;;;;49.30;35.97;;;18.60;99.90;;;;;;4975151;28;94514;-37
2023/09/12 07:22:58;;;;;;;48.47;36.90;;;18.60;99.90;;;;;;4974079;28;94451;-34
2023/09/12 07:25:23;;;;;;;51.50;38.45;;;18.70;99.90;;;;;;4975982;28;93173;-34
2023/09/12 07:27:50;;;;;;;45.83;35.42;;;18.70;99.90;;;;;;4975434;28;94300;-39
2023/09/12 07:30:15;;;;;;;52.80;39.08;;;18.80;99.90;;;;;;4974519;28;94746;-38
2023/09/12 07:32:41;;;;;;;48.33;36.63;;;18.90;99.90;;;;;;4975046;28;94563;-35
2023/09/12 07:35:07;;;;;;;50.83;36.50;;;18.90;99.90;;;;;;4975932;28;93012;-33
2023/09/12 07:37:33;;;;;;;44.10;34.72;;;19.00;99.90;;;;;;4982983;28;94318;-36
2023/09/12 07:39:58;;;;;;;44.13;33.50;;;19.00;99.90;;;;;;4980243;28;95748;-38
2023/09/12 07:42:24;;;;;;;42.80;32.83;;;19.10;99.90;;;;;;4975316;28;95555;-38
2023/09/12 07:44:50;;;;;;;45.13;35.13;;;19.20;99.90;;;;;;4974650;28;93028;-35
2023/09/12 07:47:16;;;;;;;47.70;37.50;;;19.20;99.90;;;;;;4975703;28;93207;-36
2023/09/12 07:49:41;;;;;;;46.47;34.70;;;19.30;99.90;;;;;;4975109;28;96108;-35
2023/09/12 07:52:07;;;;;;;42.70;33.13;;;19.30;99.90;;;;;;4974430;28;94956;-35
2023/09/12 07:54:33;;;;;;;48.80;36.95;;;19.20;99.90;;;;;;4975447;28;93610;-37
2023/09/12 07:56:58;;;;;;;43.80;36.63;;;19.20;99.90;;;;;;4974890;28;95003;-35
2023/09/12 07:59:24;;;;;;;43.92;32.42;;;19.10;99.90;;;;;;4974549;28;95785;-36
2023/09/12 08:01:51;;;;;;;45.08;34.85;;;19.20;99.90;;;;;;4974486;28;95238;-32
2023/09/12 08:04:17;;;;;;;49.30;36.60;;;19.10;99.90;;;;;;4975424;28;95016;-35
2023/09/12 08:06:43;;;;;;;50.38;35.38;;;19.10;99.90;;;;;;4978272;28;93355;-35
2023/09/12 08:09:09;;;;;;;48.03;34.30;;;19.00;99.90;;;;;;4984163;28;95520;-34
2023/09/12 08:11:35;;;;;;;49.33;36.38;;;19.00;99.90;;;;;;4974574;28;94312;-35
2023/09/12 08:14:01;;;;;;;46.53;34.25;;;19.00;99.90;;;;;;4975239;28;94621;-38
2023/09/12 08:16:27;;;;;;;44.25;33.83;;;19.10;99.90;;;;;;4973610;28;92756;-37
2023/09/12 08:18:53;;;;;;;50.55;37.47;;;19.10;99.90;;;;;;4975209;28;95974;-35
2023/09/12 08:21:18;;;;;;;48.28;33.90;;;19.10;99.90;;;;;;4973520;28;94149;-37
2023/09/12 08:23:44;;;;;;;49.85;36.97;;;19.10;99.90;;;;;;4974118;28;92261;-35
2023/09/12 08:26:11;;;;;;;49.50;35.92;;;19.20;99.90;;;;;;4974612;28;93232;-34
2023/09/12 08:28:36;;;;;;;49.47;35.58;;;19.20;99.90;;;;;;4974146;28;95134;-34
2023/09/12 08:31:02;;;;;;;47.17;36.67;;;19.30;99.90;;;;;;4973447;28;94666;-34
2023/09/12 08:33:28;;;;;;;55.20;36.70;;;19.40;99.90;;;;;;4974607;28;93835;-38
2023/09/12 08:35:53;;;;;;;50.35;34.40;;;19.40;99.90;;;;;;4973814;28;92823;-34
2023/09/12 08:38:19;;;;;;;46.25;34.88;;;19.50;99.90;;;;;;4987108;28;95050;-33
2023/09/12 08:40:50;;;;;;;52.40;34.85;;;19.60;99.90;;;;;;4974715;28;94347;-34
2023/09/12 08:43:16;;;;;;;46.67;33.08;;;19.60;99.90;;;;;;4973445;28;94542;-36
2023/09/12 08:45:44;;;;;;;50.92;38.10;;;19.60;99.90;;;;;;4974552;28;93047;-37
2023/09/12 08:48:11;;;;;;;53.20;38.53;;;19.60;99.90;;;;;;4974262;28;94766;-33
2023/09/12 08:50:37;;;;;;;52.17;36.85;;;19.60;99.90;;;;;;4974199;28;95467;-36
2023/09/12 08:53:03;;;;;;;48.15;33.08;;;19.70;99.90;;;;;;4972956;28;95385;-38
2023/09/12 08:55:29;;;;;;;52.95;37.05;;;19.80;99.90;;;;;;4974144;28;93120;-36
2023/09/12 08:57:55;;;;;;;46.35;36.22;;;19.80;99.90;;;;;;4973013;28;95263;-33
2023/09/12 09:00:23;;;;;;;46.83;33.75;;;19.90;99.90;;;;;;4972977;28;94940;-33
2023/09/12 09:02:49;;;;;;;44.73;32.47;;;20.00;99.90;;;;;;4974616;28;93279;-34
2023/09/12 09:05:17;;;;;;;43.33;32.00;;;20.00;99.90;;;;;;4973629;28;93046;-37
2023/09/12 09:07:43;;;;;;;49.63;33.65;;;19.90;99.90;;;;;;4972258;28;94970;-38
2023/09/12 09:10:17;;;;;;;43.80;30.35;;;19.90;99.90;;;;;;4973499;28;94480;-34
2023/09/12 09:12:45;;;;;;;40.13;30.52;;;19.90;99.90;;;;;;4974094;28;94218;-38
2023/09/12 09:15:28;;;;;;;42.75;30.15;;;19.90;99.90;;;;;;4968049;28;93119;-36
2023/09/12 09:17:57;;;;;;;38.45;28.77;;;19.90;99.90;;;;;;4976360;28;95326;-35
2023/09/12 09:20:22;;;;;;;;;;;19.90;99.90;;;;;;4973785;28;95338;-36
2023/09/12 09:23:01;;;;;;;41.90;31.48;;;19.90;99.90;;;;;;4974963;28;92306;-35
2023/09/12 09:25:27;;;;;;;37.75;30.08;;;19.90;99.90;;;;;;4974578;28;93531;-35
2023/09/12 09:27:53;;;;;;;48.13;33.38;;;19.90;99.90;;;;;;4973085;28;94473;-35
2023/09/12 09:30:42;;;;;;;47.78;32.55;;;19.80;99.90;;;;;;4972633;28;95203;-40
2023/09/12 09:33:08;;;;;;;42.33;29.77;;;19.90;99.90;;;;;;4961635;28;93447;-37
2023/09/12 09:35:35;;;;;;;50.88;34.90;;;19.90;99.90;;;;;;4974033;28;93054;-36
2023/09/12 09:38:02;;;;;;;42.67;31.58;;;19.90;99.90;;;;;;4984310;28;94710;-36
2023/09/12 09:40:28;;;;;;;44.50;30.67;;;20.00;99.90;;;;;;4975312;28;94643;-38
2023/09/12 09:42:56;;;;;;;38.28;29.50;;;20.00;99.90;;;;;;4972889;28;95736;-34
2023/09/12 09:45:21;;;;;;;38.20;28.85;;;20.20;99.90;;;;;;4973931;28;94615;-33
2023/09/12 09:47:50;;;;;;;34.10;25.10;;;20.40;99.90;;;;;;4973121;28;95522;-33
2023/09/12 09:50:15;;;;;;;36.53;24.73;;;20.60;99.90;;;;;;4977070;28;94676;-38
2023/09/12 09:52:43;;;;;;;33.47;26.33;;;20.70;99.90;;;;;;4973578;28;94686;-35
2023/09/12 09:55:14;;;;;;;32.78;25.45;;;20.70;99.90;;;;;;4971919;28;92196;-38
2023/09/12 09:57:40;;;;;;;40.63;27.10;;;20.80;99.90;;;;;;4973660;28;95159;-36
2023/09/12 10:00:08;;;;;;;38.00;26.42;;;20.80;99.90;;;;;;4985445;28;94858;-33
2023/09/12 10:02:35;;;;;;;36.63;27.27;;;20.80;99.90;;;;;;4973265;28;94536;-38
2023/09/12 10:05:05;;;;;;;34.30;27.17;;;20.80;99.90;;;;;;4972525;28;95048;-31
2023/09/12 10:07:37;;;;;;;37.22;27.92;;;20.90;99.90;;;;;;4973030;28;95300;-33
2023/09/12 10:10:04;;;;;;;36.05;25.35;;;21.00;99.90;;;;;;4971423;28;95592;-36
2023/09/12 10:12:36;;;;;;;35.20;25.27;;;21.10;99.90;;;;;;4972864;28;93086;-35
2023/09/12 10:15:04;;;;;;;38.55;28.00;;;21.10;99.90;;;;;;4955089;28;93145;-35
2023/09/12 10:17:34;;;;;;;;;;;21.10;99.90;;;;;;4973753;28;94183;-36
2023/09/12 10:20:09;;;;;;;33.75;28.10;;;21.30;99.90;;;;;;4974393;28;94186;-34
2023/09/12 10:22:41;;;;;;;36.95;27.25;;;21.50;99.90;;;;;;4973089;28;93493;-34
2023/09/12 10:25:08;;;;;;;33.03;27.63;;;21.40;99.90;;;;;;4973577;28;91817;-34
2023/09/12 10:27:34;;;;;;;33.15;26.17;;;21.50;99.90;;;;;;4971784;28;96208;-35
2023/09/12 10:30:02;;;;;;;38.90;27.23;;;21.70;99.90;;;;;;4980679;28;94536;-37
2023/09/12 10:32:30;;;;;;;39.10;26.45;;;22.00;99.90;;;;;;4957694;28;94480;-34
2023/09/12 10:34:58;;;;;;;35.30;27.60;;;22.00;99.90;;;;;;4972301;28;93797;-35
2023/09/12 10:37:26;;;;;;;33.38;26.05;;;21.90;99.90;;;;;;4978259;28;94609;-37
2023/09/12 10:39:57;;;;;;;35.33;28.48;;;22.00;99.90;;;;;;4979987;28;96268;-35
2023/09/12 10:42:25;;;;;;;29.63;23.77;;;21.90;99.90;;;;;;4959467;28;93952;-34
2023/09/12 10:44:54;;;;;;;27.88;23.55;;;22.20;99.90;;;;;;4974851;28;93244;-33
2023/09/12 10:47:20;;;;;;;28.90;23.98;;;22.10;99.90;;;;;;4975445;28;94959;-33
2023/09/12 10:49:46;;;;;;;35.42;23.75;;;21.90;99.90;;;;;;4976680;28;95253;-35
2023/09/12 10:52:25;;;;;;;32.75;24.90;;;21.90;99.90;;;;;;4979616;28;94992;-37
2023/09/12 10:54:50;;;;;;;25.40;21.90;;;22.00;99.90;;;;;;4976859;28;95001;-36
2023/09/12 10:57:16;;;;;;;30.05;22.73;;;21.90;99.90;;;;;;4973617;28;95873;-37
2023/09/12 11:00:08;;;;;;;29.00;24.95;;;22.00;99.90;;;;;;4976473;28;95939;-35
2023/09/12 11:02:38;;;;;;;30.98;22.88;;;22.10;99.90;;;;;;4975974;28;93077;-32
2023/09/12 11:05:05;;;;;;;27.20;23.42;;;22.10;99.90;;;;;;4974546;28;94860;-37
2023/09/12 11:07:34;;;;;;;27.55;21.58;;;22.40;99.90;;;;;;4976620;28;95054;-36
2023/09/12 11:10:15;;;;;;;31.58;23.30;;;22.60;99.90;;;;;;4975369;28;95014;-36
2023/09/12 11:12:42;;;;;;;28.17;23.05;;;22.70;99.90;;;;;;4974802;28;93997;-38
2023/09/12 11:15:10;;;;;;;31.77;24.08;;;22.90;99.90;;;;;;4975802;28;93322;-37
2023/09/12 11:17:43;;;;;;;27.27;21.27;;;22.80;99.90;;;;;;4975679;28;94019;-35
2023/09/12 11:20:12;;;;;;;25.42;22.70;;;22.80;99.90;;;;;;4974265;28;95121;-34
2023/09/12 11:22:39;;;;;;;28.38;23.08;;;23.10;99.90;;;;;;4975840;28;93822;-34
2023/09/12 11:25:16;;;;;;;23.70;19.13;;;23.10;99.90;;;;;;4976275;28;92512;-34
2023/09/12 11:27:54;;;;;;;24.23;20.83;;;23.10;99.90;;;;;;4974142;28;95458;-35
2023/09/12 11:30:21;;;;;;;21.63;18.05;;;23.30;99.90;;;;;;4975280;28;94631;-33
2023/09/12 11:32:50;;;;;;;25.42;19.52;;;23.40;99.90;;;;;;4976004;28;94524;-36
2023/09/12 11:35:16;;;;;;;26.02;19.92;;;23.40;99.90;;;;;;4975122;28;93685;-36
2023/09/12 11:37:49;;;;;;;22.98;16.55;;;23.50;99.90;;;;;;4965556;28;94761;-36
2023/09/12 11:40:17;;;;;;;28.65;21.95;;;23.50;99.90;;;;;;4978449;28;95217;-36
2023/09/12 11:42:43;;;;;;;26.40;19.77;;;23.30;99.90;;;;;;4975404;28;93422;-35
2023/09/12 11:45:10;;;;;;;21.77;19.27;;;23.40;99.90;;;;;;4971561;28;94371;-34
2023/09/12 11:47:43;;;;;;;22.92;18.10;;;23.30;99.90;;;;;;4974280;28;96037;-36
2023/09/12 11:50:26;;;;;;;23.15;18.70;;;23.30;99.90;;;;;;4973825;28;95159;-34
2023/09/12 11:53:09;;;;;;;22.08;18.45;;;23.20;99.90;;;;;;4970330;28;93522;-35
2023/09/12 11:55:42;;;;;;;22.70;19.65;;;23.20;99.90;;;;;;4973416;28;93975;-34
2023/09/12 11:58:08;;;;;;;23.58;20.92;;;23.10;99.90;;;;;;4973754;28;94683;-33
2023/09/12 12:00:34;;;;;;;21.85;17.65;;;23.10;99.90;;;;;;4986602;28;93566;-36
2023/09/12 12:03:00;;;;;;;20.10;17.98;;;23.10;99.90;;;;;;4974172;28;92756;-36
2023/09/12 12:05:26;;;;;;;24.75;17.73;;;23.10;99.90;;;;;;4973734;28;91953;-34
2023/09/12 12:07:51;;;;;;;22.83;18.00;;;23.20;99.90;;;;;;4973988;28;94520;-33
2023/09/12 12:10:17;;;;;;;18.15;16.27;;;23.20;99.90;;;;;;4974719;28;94159;-36
2023/09/12 12:12:46;;;;;;;23.27;17.42;;;23.30;99.90;;;;;;4972676;28;95232;-35
2023/09/12 12:15:13;;;;;;;21.35;17.65;;;23.30;99.90;;;;;;4979944;28;93276;-37
2023/09/12 12:17:42;;;;;;;21.30;16.73;;;23.40;99.90;;;;;;4980075;28;93953;-35
2023/09/12 12:20:10;;;;;;;22.30;17.83;;;23.40;99.90;;;;;;4961770;28;95373;-36
2023/09/12 12:22:39;;;;;;;20.63;16.67;;;23.50;99.90;;;;;;4974365;28;93061;-34
2023/09/12 12:25:11;;;;;;;22.45;16.98;;;23.50;99.90;;;;;;4966070;28;92154;-34
2023/09/12 12:27:41;;;;;;;19.75;17.65;;;23.60;99.90;;;;;;4969516;28;94462;-35